Time;durP1;ratioP1;P1;durP2;ratioP2;P2;SDS_P1;SDS_P2;PMS_P1;PMS_P2;Temp;Humidity;BMP_temperature;BMP_pressure;BME280_temperature;BME280_humidity;BME280_pressure;Samples;Min_cycle;Max_cycle;Signal;HPM_P1;HPM_P2
2021/09/23 00:01:37;;;;;;;29.77;18.13;;;;;;;11.91;54.20;101970.16;4979061;28;20049;-69
2021/09/23 00:04:16;;;;;;;30.15;16.92;;;;;;;11.86;54.48;101980.72;4976753;28;20042;-69
2021/09/23 00:06:42;;;;;;;35.33;16.65;;;;;;;11.84;54.85;101971.19;4978843;28;20034;-70
2021/09/23 00:09:08;;;;;;;34.28;17.98;;;;;;;11.32;56.68;101965.56;4968554;28;20030;-70
2021/09/23 00:11:34;;;;;;;34.70;17.20;;;;;;;11.43;56.38;101963.53;4975978;28;20038;-70
2021/09/23 00:14:00;;;;;;;28.23;16.90;;;;;;;11.44;56.33;101948.66;4978463;28;20075;-70
2021/09/23 00:16:25;;;;;;;29.08;16.70;;;;;;;11.76;55.25;101952.19;4978302;28;20045;-70
2021/09/23 00:18:51;;;;;;;34.38;17.55;;;;;;;11.45;56.13;101939.94;4975301;28;20039;-70
2021/09/23 00:21:18;;;;;;;27.13;16.60;;;;;;;11.44;55.92;101925.13;4985039;28;20050;-70
2021/09/23 00:23:45;;;;;;;31.92;16.85;;;;;;;11.54;55.86;101933.59;4986742;28;20146;-70
2021/09/23 00:26:11;;;;;;;37.58;16.15;;;;;;;11.59;55.40;101931.69;4978915;28;20103;-70
2021/09/23 00:28:37;;;;;;;27.52;16.05;;;;;;;11.62;55.70;101931.59;4977837;28;20031;-70
2021/09/23 00:31:03;;;;;;;32.10;16.92;;;;;;;11.59;55.56;101931.69;4987752;28;20030;-70
2021/09/23 00:33:28;;;;;;;31.02;17.08;;;;;;;11.15;56.57;101916.31;4978135;28;20408;-69
2021/09/23 00:35:54;;;;;;;34.38;17.45;;;;;;;11.58;55.58;101919.53;4976241;28;20062;-70
2021/09/23 00:38:20;;;;;;;28.55;16.20;;;;;;;11.64;55.00;101914.09;4986543;28;20042;-70
2021/09/23 00:40:45;;;;;;;29.85;17.75;;;;;;;11.14;56.65;101926.78;4978858;28;20047;-70
2021/09/23 00:43:11;;;;;;;27.00;16.52;;;;;;;11.74;54.62;101915.56;4963592;28;20046;-70
2021/09/23 00:45:37;;;;;;;31.30;18.15;;;;;;;11.31;55.83;101906.28;4980041;28;20022;-70
2021/09/23 00:48:03;;;;;;;28.40;16.27;;;;;;;11.57;55.05;101912.56;4978464;28;20019;-70
2021/09/23 00:50:30;;;;;;;26.60;17.10;;;;;;;11.35;55.61;101897.47;4980574;28;20110;-70
2021/09/23 00:53:03;;;;;;;30.13;18.35;;;;;;;11.24;55.90;101887.28;4986540;28;20037;-70
2021/09/23 00:55:29;;;;;;;34.47;18.15;;;;;;;11.44;55.17;101876.25;4995772;28;20035;-70
2021/09/23 00:57:55;;;;;;;36.00;17.85;;;;;;;11.20;55.97;101883.00;4980263;28;20030;-69
2021/09/23 01:00:25;;;;;;;27.00;16.95;;;;;;;11.01;56.35;101882.63;4992312;28;20034;-70
2021/09/23 01:03:15;;;;;;;25.05;16.10;;;;;;;11.34;55.48;101879.16;4966601;28;20820;-70
2021/09/23 01:05:42;;;;;;;28.20;16.30;;;;;;;11.30;55.70;101878.38;4966388;28;20038;-70
2021/09/23 01:08:09;;;;;;;32.90;17.77;;;;;;;11.27;55.63;101868.00;4977901;28;20448;-70
2021/09/23 01:10:34;;;;;;;26.33;14.77;;;;;;;11.46;54.85;101858.75;4978773;28;20034;-70
2021/09/23 01:13:01;;;;;;;35.25;18.42;;;;;;;11.35;54.98;101858.19;4996816;28;20037;-70
2021/09/23 01:15:42;;;;;;;34.15;17.20;;;;;;;11.37;55.08;101851.13;4983614;28;20126;-70
2021/09/23 01:18:08;;;;;;;32.67;17.67;;;;;;;11.44;54.96;101854.44;4984947;28;20520;-70
2021/09/23 01:20:34;;;;;;;31.58;18.10;;;;;;;10.96;56.48;101841.78;4992189;28;20882;-70
2021/09/23 01:22:59;;;;;;;42.67;19.58;;;;;;;11.18;55.74;101842.09;4977430;28;20137;-69
2021/09/23 01:25:35;;;;;;;31.65;18.00;;;;;;;11.17;55.38;101842.97;4977132;28;20065;-70
2021/09/23 01:28:01;;;;;;;39.83;18.30;;;;;;;11.30;55.01;101831.25;4988767;28;20023;-70
2021/09/23 01:30:44;;;;;;;33.97;19.52;;;;;;;11.21;54.84;101826.28;4965667;28;20045;-69
2021/09/23 01:33:10;;;;;;;36.58;19.65;;;;;;;11.20;54.82;101835.06;4993125;28;20034;-70
2021/09/23 01:35:35;;;;;;;34.53;20.33;;;;;;;11.08;55.42;101841.47;4979852;28;20057;-69
2021/09/23 01:38:04;;;;;;;39.15;20.20;;;;;;;10.99;55.58;101829.47;4977244;28;20038;-69
2021/09/23 01:40:30;;;;;;;38.50;20.45;;;;;;;11.19;54.88;101834.16;4978142;28;20054;-70
2021/09/23 01:42:56;;;;;;;37.92;20.17;;;;;;;10.91;55.45;101826.22;4977775;28;20034;-70
2021/09/23 01:45:22;;;;;;;37.05;20.77;;;;;;;11.13;55.09;101828.25;4990191;28;20096;-69
2021/09/23 01:47:49;;;;;;;42.88;22.17;;;;;;;11.01;55.03;101821.59;4992736;28;20034;-70
2021/09/23 01:50:19;;;;;;;42.47;21.20;;;;;;;10.97;55.32;101813.00;4994067;28;20077;-69
2021/09/23 01:52:48;;;;;;;42.85;23.35;;;;;;;10.60;55.86;101813.91;4975034;28;20038;-69
2021/09/23 01:55:14;;;;;;;39.58;21.17;;;;;;;11.16;54.25;101804.63;4978644;28;20037;-69
2021/09/23 01:57:42;;;;;;;39.85;21.77;;;;;;;10.91;54.78;101789.59;4993560;28;20069;-69
2021/09/23 02:00:08;;;;;;;41.75;22.90;;;;;;;10.81;55.38;101788.09;4977232;28;20180;-69
2021/09/23 02:02:40;;;;;;;41.97;22.40;;;;;;;10.40;56.79;101779.56;4977003;28;20051;-69
2021/09/23 02:05:11;;;;;;;40.43;22.07;;;;;;;10.15;57.29;101772.31;4994152;28;20045;-70
2021/09/23 02:07:37;;;;;;;38.85;22.30;;;;;;;10.74;55.25;101768.25;4978229;28;20041;-70
2021/09/23 02:10:08;;;;;;;37.57;21.57;;;;;;;10.59;55.39;101770.38;4983445;28;20040;-70
2021/09/23 02:12:35;;;;;;;46.58;23.90;;;;;;;10.96;54.46;101769.41;4980443;28;20286;-70
2021/09/23 02:15:03;;;;;;;41.28;23.90;;;;;;;10.86;54.55;101777.53;4994961;28;20034;-70
2021/09/23 02:17:29;;;;;;;39.63;23.98;;;;;;;10.84;54.68;101765.38;4967373;28;20124;-70
2021/09/23 02:19:57;;;;;;;49.35;24.35;;;;;;;10.27;56.42;101760.72;4974689;28;20114;-70
2021/09/23 02:22:32;;;;;;;43.38;23.50;;;;;;;10.25;56.25;101751.19;4992138;28;20117;-70
2021/09/23 02:24:58;;;;;;;41.15;23.58;;;;;;;10.78;54.77;101743.72;4974322;28;20859;-70
2021/09/23 02:27:24;;;;;;;39.55;23.52;;;;;;;10.56;55.12;101743.44;4977437;28;20038;-70
2021/09/23 02:29:50;;;;;;;45.72;24.33;;;;;;;10.66;55.04;101728.34;4976179;28;20110;-70
2021/09/23 02:32:15;;;;;;;40.92;23.02;;;;;;;10.90;54.10;101730.34;4976351;28;20146;-70
2021/09/23 02:34:41;;;;;;;36.53;21.90;;;;;;;10.58;55.19;101721.59;4976900;28;20045;-70
2021/09/23 02:37:07;;;;;;;46.70;23.75;;;;;;;10.69;54.61;101712.59;4967657;28;20089;-70
2021/09/23 02:39:34;;;;;;;42.03;22.52;;;;;;;9.98;56.38;101696.13;4980594;28;20559;-70
2021/09/23 02:42:00;;;;;;;45.03;22.40;;;;;;;10.38;55.70;101697.72;4982693;28;20575;-70
2021/09/23 02:44:26;;;;;;;41.85;23.08;;;;;;;9.93;56.71;101695.38;4988098;28;20130;-71
2021/09/23 02:46:51;;;;;;;39.53;22.98;;;;;;;10.21;55.81;101700.75;4985422;28;20100;-70
2021/09/23 02:49:17;;;;;;;40.10;22.55;;;;;;;10.34;55.57;101696.09;4988473;28;20096;-70
2021/09/23 02:51:42;;;;;;;42.15;23.45;;;;;;;10.36;55.15;101699.53;4995191;28;20069;-70
2021/09/23 02:54:08;;;;;;;43.53;23.17;;;;;;;10.36;55.43;101694.31;4982537;28;20288;-70
2021/09/23 02:56:33;;;;;;;49.60;23.73;;;;;;;10.15;56.11;101686.13;4980154;28;20034;-70
2021/09/23 02:58:59;;;;;;;43.67;24.33;;;;;;;9.96;56.58;101685.69;4997495;28;20488;-70
2021/09/23 03:01:25;;;;;;;40.50;23.02;;;;;;;10.13;55.99;101676.59;4980773;28;20038;-70
2021/09/23 03:03:50;;;;;;;47.13;25.58;;;;;;;9.95;56.40;101672.72;4981503;28;20046;-70
2021/09/23 03:06:16;;;;;;;45.67;24.95;;;;;;;10.69;54.34;101681.22;4986362;28;20026;-70
2021/09/23 03:08:42;;;;;;;45.75;23.52;;;;;;;10.84;53.71;101676.47;4998072;28;20131;-70
2021/09/23 03:11:08;;;;;;;42.10;23.35;;;;;;;10.23;55.51;101667.63;4970847;28;20038;-70
2021/09/23 03:13:34;;;;;;;49.67;23.17;;;;;;;10.57;55.02;101674.56;4984626;28;20031;-71
2021/09/23 03:16:00;;;;;;;46.03;23.80;;;;;;;10.49;55.05;101677.41;5005352;28;20132;-71
2021/09/23 03:18:26;;;;;;;48.22;22.77;;;;;;;10.78;54.13;101667.91;4981398;28;20046;-71
2021/09/23 03:20:52;;;;;;;50.88;24.30;;;;;;;10.73;53.88;101648.88;4982877;28;20073;-71
2021/09/23 03:23:18;;;;;;;53.17;24.55;;;;;;;10.63;54.72;101650.88;4996215;28;20065;-71
2021/09/23 03:25:44;;;;;;;47.00;24.38;;;;;;;10.63;54.65;101656.09;4983264;28;20033;-71
2021/09/23 03:28:11;;;;;;;47.05;25.27;;;;;;;10.52;55.02;101655.53;4968911;28;21983;-71
2021/09/23 03:30:37;;;;;;;55.22;24.80;;;;;;;10.44;55.20;101663.59;4997377;28;20045;-71
2021/09/23 03:33:04;;;;;;;48.88;25.20;;;;;;;10.72;54.56;101668.06;4967851;28;20034;-71
2021/09/23 03:35:30;;;;;;;44.17;22.40;;;;;;;10.31;55.62;101662.22;4994054;28;20510;-71
2021/09/23 03:37:56;;;;;;;46.22;24.20;;;;;;;10.08;56.37;101665.41;5000756;28;20602;-71
2021/09/23 03:40:22;;;;;;;44.78;22.55;;;;;;;10.58;54.82;101658.00;4980927;28;20094;-71
2021/09/23 03:42:48;;;;;;;50.95;26.45;;;;;;;10.46;55.13;101653.09;4983937;28;20041;-71
2021/09/23 03:45:13;;;;;;;47.33;24.40;;;;;;;10.56;54.72;101651.94;4999088;28;20026;-71
2021/09/23 03:47:39;;;;;;;49.33;24.75;;;;;;;10.68;54.36;101648.97;4998381;28;20654;-71
2021/09/23 03:50:06;;;;;;;49.20;23.17;;;;;;;10.77;54.33;101647.88;4977711;28;20110;-71
2021/09/23 03:52:31;;;;;;;54.65;24.48;;;;;;;10.90;53.90;101648.41;4986589;28;20041;-69
2021/09/23 03:54:57;;;;;;;54.38;25.38;;;;;;;10.49;55.22;101647.78;4983698;28;20038;-69
2021/09/23 03:57:23;;;;;;;48.97;24.10;;;;;;;10.27;55.81;101642.28;4978144;28;20042;-69
2021/09/23 03:59:48;;;;;;;50.00;23.38;;;;;;;10.66;54.60;101623.78;4963321;28;20042;-70
2021/09/23 04:02:14;;;;;;;50.72;25.35;;;;;;;10.57;54.59;101610.09;4987048;28;20145;-71
2021/09/23 04:04:40;;;;;;;53.28;24.60;;;;;;;10.81;53.95;101594.59;4978253;28;20042;-70
2021/09/23 04:07:06;;;;;;;51.67;24.30;;;;;;;10.71;54.55;101601.00;4967457;28;20037;-70
2021/09/23 04:09:35;;;;;;;47.67;23.50;;;;;;;10.49;54.79;101585.06;4976234;28;20043;-70
2021/09/23 04:12:01;;;;;;;51.05;25.35;;;;;;;10.09;56.13;101580.94;4990361;28;20081;-69
2021/09/23 04:14:28;;;;;;;50.38;24.13;;;;;;;9.83;56.55;101579.84;4976143;28;20174;-70
2021/09/23 04:16:54;;;;;;;56.60;22.88;;;;;;;10.43;55.02;101578.25;4995733;28;20667;-70
2021/09/23 04:19:20;;;;;;;44.22;23.52;;;;;;;10.47;55.15;101577.25;4989916;28;20042;-69
2021/09/23 04:21:46;;;;;;;43.63;24.60;;;;;;;10.38;54.93;101573.16;4975464;28;20097;-70
2021/09/23 04:24:13;;;;;;;48.20;24.45;;;;;;;10.13;56.09;101562.53;4976005;28;20538;-69
2021/09/23 04:26:41;;;;;;;48.47;24.33;;;;;;;9.81;56.97;101545.09;4976486;28;20045;-69
2021/09/23 04:29:07;;;;;;;49.28;24.27;;;;;;;9.92;56.56;101536.97;4982251;28;20045;-69
2021/09/23 04:31:35;;;;;;;52.20;25.80;;;;;;;9.70;57.38;101550.56;4976477;28;20064;-69
2021/09/23 04:34:00;;;;;;;56.72;25.02;;;;;;;9.84;56.91;101546.78;4991042;28;20065;-69
2021/09/23 04:36:26;;;;;;;44.08;22.65;;;;;;;10.19;55.77;101541.47;4978333;28;20480;-70
2021/09/23 04:38:52;;;;;;;52.72;24.45;;;;;;;10.03;56.53;101548.00;4977967;28;20117;-70
2021/09/23 04:41:18;;;;;;;46.30;25.13;;;;;;;9.97;56.58;101543.81;4980680;28;20889;-69
2021/09/23 04:43:46;;;;;;;45.10;22.60;;;;;;;9.97;56.67;101542.94;4990746;28;20039;-70
2021/09/23 04:46:13;;;;;;;45.95;22.98;;;;;;;9.66;57.81;101546.31;4994313;28;20037;-69
2021/09/23 04:48:38;;;;;;;55.58;23.80;;;;;;;10.19;55.85;101536.25;4974593;28;20034;-70
2021/09/23 04:51:04;;;;;;;49.42;24.42;;;;;;;10.08;56.34;101537.41;4979888;28;20026;-69
2021/09/23 04:53:29;;;;;;;50.10;24.60;;;;;;;10.08;56.19;101540.03;4985302;28;20034;-70
2021/09/23 04:56:01;;;;;;;51.63;23.33;;;;;;;10.28;55.55;101542.97;4978093;28;20439;-70
2021/09/23 04:58:29;;;;;;;46.65;23.95;;;;;;;10.31;55.98;101549.84;4981565;28;20344;-70
2021/09/23 05:00:54;;;;;;;44.72;23.73;;;;;;;10.18;56.12;101539.75;4965432;28;20610;-69
2021/09/23 05:03:21;;;;;;;54.53;23.73;;;;;;;10.05;56.71;101540.13;4976426;28;20050;-69
2021/09/23 05:05:47;;;;;;;48.42;24.65;;;;;;;10.27;56.07;101527.31;4991975;28;20031;-69
2021/09/23 05:08:12;;;;;;;49.97;24.88;;;;;;;10.53;55.07;101516.97;4977199;28;20022;-69
2021/09/23 05:10:38;;;;;;;51.00;25.40;;;;;;;10.04;56.61;101515.75;4992669;28;20034;-69
2021/09/23 05:13:05;;;;;;;52.83;25.52;;;;;;;10.00;56.71;101508.91;4975689;28;20030;-69
2021/09/23 05:15:31;;;;;;;55.60;25.10;;;;;;;10.22;55.96;101517.84;4973730;28;20034;-69
2021/09/23 05:17:57;;;;;;;48.88;24.05;;;;;;;10.28;56.12;101524.69;4964221;28;20332;-69
2021/09/23 05:20:23;;;;;;;53.05;25.70;;;;;;;10.36;55.98;101533.13;4992503;28;20053;-69
2021/09/23 05:22:49;;;;;;;60.05;27.08;;;;;;;10.21;56.59;101523.13;4978185;28;20046;-69
2021/09/23 05:25:14;;;;;;;49.47;23.90;;;;;;;10.49;55.57;101502.28;4976982;28;20035;-70
2021/09/23 05:27:40;;;;;;;48.38;23.73;;;;;;;10.31;56.32;101495.00;4975731;28;20393;-69
2021/09/23 05:30:09;;;;;;;57.97;24.77;;;;;;;10.22;56.93;101481.28;4974070;28;20037;-69
2021/09/23 05:32:35;;;;;;;50.40;24.98;;;;;;;10.57;55.95;101473.28;4973383;28;20042;-69
2021/09/23 05:35:02;;;;;;;50.53;24.60;;;;;;;10.64;55.52;101467.84;4988625;28;20036;-69
2021/09/23 05:37:27;;;;;;;56.35;25.55;;;;;;;9.99;57.94;101461.06;4973696;28;20092;-69
2021/09/23 05:39:53;;;;;;;56.35;26.15;;;;;;;9.91;58.03;101462.16;4977640;28;20472;-69
2021/09/23 05:42:18;;;;;;;51.67;26.02;;;;;;;10.16;57.54;101457.94;4980790;28;20564;-69
2021/09/23 05:44:44;;;;;;;54.60;27.45;;;;;;;10.26;57.29;101455.06;4975085;28;20038;-70
2021/09/23 05:47:10;;;;;;;51.72;25.52;;;;;;;10.62;56.52;101459.19;4964653;28;20721;-70
2021/09/23 05:49:35;;;;;;;50.85;26.63;;;;;;;10.71;56.21;101457.19;4977287;28;20113;-69
2021/09/23 05:52:01;;;;;;;52.78;26.13;;;;;;;10.35;57.12;101442.59;4978897;28;20432;-70
2021/09/23 05:54:27;;;;;;;56.55;26.27;;;;;;;10.66;56.80;101435.56;4988731;28;20801;-69
2021/09/23 05:56:53;;;;;;;54.92;26.00;;;;;;;10.59;57.10;101425.31;4974725;28;20042;-69
2021/09/23 05:59:18;;;;;;;49.40;24.20;;;;;;;10.34;58.22;101422.56;4986723;28;20042;-69
2021/09/23 06:01:44;;;;;;;58.35;26.35;;;;;;;10.91;56.42;101415.59;4989052;28;20500;-69
2021/09/23 06:04:10;;;;;;;61.35;26.23;;;;;;;10.57;57.62;101411.44;4980027;28;20472;-69
2021/09/23 06:06:36;;;;;;;59.45;26.13;;;;;;;10.52;57.62;101400.25;4977468;28;20057;-69
2021/09/23 06:09:03;;;;;;;48.08;26.38;;;;;;;10.84;57.18;101404.50;4988126;28;20038;-70
2021/09/23 06:11:29;;;;;;;62.63;27.40;;;;;;;10.27;58.83;101412.38;4989245;28;20854;-70
2021/09/23 06:13:55;;;;;;;62.45;25.65;;;;;;;10.44;58.26;101407.50;4974307;28;20042;-70
2021/09/23 06:16:20;;;;;;;50.45;25.27;;;;;;;10.34;58.84;101412.13;4992719;28;20062;-69
2021/09/23 06:18:47;;;;;;;53.80;25.45;;;;;;;10.43;59.32;101416.22;4960813;28;20045;-69
2021/09/23 06:21:13;;;;;;;51.85;25.23;;;;;;;11.39;56.33;101414.84;4992083;28;20049;-69
2021/09/23 06:23:39;;;;;;;56.42;26.05;;;;;;;10.63;58.53;101408.59;4990535;28;20041;-69
2021/09/23 06:26:05;;;;;;;49.35;25.77;;;;;;;11.05;57.38;101397.69;4993028;28;20030;-69
2021/09/23 06:28:31;;;;;;;54.88;27.27;;;;;;;11.18;57.41;101392.91;4975060;28;20057;-70
2021/09/23 06:31:02;;;;;;;51.22;25.52;;;;;;;10.54;59.03;101388.00;4975452;28;20046;-69
2021/09/23 06:33:27;;;;;;;50.75;23.60;;;;;;;11.53;56.81;101387.31;4973923;28;20134;-68
2021/09/23 06:35:53;;;;;;;52.42;25.73;;;;;;;11.61;56.18;101386.13;4987410;28;20445;-69
2021/09/23 06:38:19;;;;;;;54.03;24.98;;;;;;;11.54;56.69;101383.81;4992613;28;20905;-69
2021/09/23 06:40:45;;;;;;;51.83;25.23;;;;;;;11.57;56.46;101384.53;4988347;28;20034;-71
2021/09/23 06:43:10;;;;;;;55.25;26.25;;;;;;;11.85;55.93;101389.66;4973137;28;20511;-71
2021/09/23 06:45:36;;;;;;;52.20;24.85;;;;;;;11.91;55.83;101382.47;4974631;28;20059;-71
2021/09/23 06:48:01;;;;;;;50.80;23.35;;;;;;;11.92;56.07;101373.72;4981232;28;20046;-71
2021/09/23 06:50:27;;;;;;;47.85;23.13;;;;;;;12.12;55.33;101371.19;4975150;28;20050;-71
2021/09/23 06:52:53;;;;;;;47.50;23.60;;;;;;;12.21;55.23;101370.84;4994635;28;20026;-70
2021/09/23 06:55:18;;;;;;;52.70;25.00;;;;;;;12.50;54.61;101363.59;4977368;28;20043;-70
2021/09/23 06:57:44;;;;;;;46.38;24.05;;;;;;;12.36;54.94;101364.16;4966948;28;20173;-70
2021/09/23 07:00:29;;;;;;;45.30;23.17;;;;;;;12.28;54.96;101359.19;4973051;28;20144;-71
2021/09/23 07:03:13;;;;;;;46.22;23.90;;;;;;;11.93;56.67;101349.22;4980505;28;20719;-70
2021/09/23 07:05:57;;;;;;;46.40;24.33;;;;;;;11.65;58.04;101350.25;4974086;28;20042;-70
2021/09/23 07:08:23;;;;;;;50.97;24.27;;;;;;;11.95;57.04;101350.88;4993494;28;20022;-71
2021/09/23 07:10:51;;;;;;;52.25;24.85;;;;;;;12.10;56.74;101357.28;4975205;28;20117;-71
2021/09/23 07:13:17;;;;;;;52.70;23.70;;;;;;;12.34;55.98;101358.09;4975919;28;20390;-70
2021/09/23 07:15:43;;;;;;;49.88;23.13;;;;;;;12.38;55.57;101362.31;4974564;28;20034;-69
2021/09/23 07:18:09;;;;;;;44.58;23.35;;;;;;;12.87;54.90;101369.97;4976297;28;20144;-70
2021/09/23 07:20:35;;;;;;;49.55;23.17;;;;;;;13.28;53.66;101370.81;4990790;28;20062;-70
2021/09/23 07:23:01;;;;;;;48.08;23.27;;;;;;;12.69;54.95;101367.19;4976322;28;20030;-70
2021/09/23 07:25:28;;;;;;;42.28;21.38;;;;;;;12.90;54.90;101364.59;4991210;28;20064;-70
2021/09/23 07:27:54;;;;;;;42.88;23.20;;;;;;;13.17;54.12;101377.47;4964622;28;20774;-70
2021/09/23 07:30:21;;;;;;;49.25;23.42;;;;;;;13.04;54.63;101367.47;4980525;28;20752;-70
2021/09/23 07:32:48;;;;;;;46.70;21.52;;;;;;;13.49;54.18;101363.75;4999994;28;20030;-70
2021/09/23 07:35:14;;;;;;;41.22;19.80;;;;;;;13.18;55.09;101363.41;4970507;28;20038;-70
2021/09/23 07:37:41;;;;;;;38.75;19.88;;;;;;;13.75;54.19;101360.94;4980566;28;20035;-70
2021/09/23 07:40:08;;;;;;;42.30;21.05;;;;;;;13.51;54.59;101371.59;4964937;28;20045;-70
2021/09/23 07:42:34;;;;;;;37.65;19.98;;;;;;;13.96;53.92;101365.19;4979361;28;20038;-70
2021/09/23 07:45:02;;;;;;;40.03;21.50;;;;;;;13.92;53.76;101368.91;4982661;28;20019;-70
2021/09/23 07:47:27;;;;;;;39.42;19.85;;;;;;;14.04;53.56;101368.31;4983968;28;20188;-70
2021/09/23 07:49:54;;;;;;;33.70;18.02;;;;;;;14.13;53.55;101364.41;4978620;28;20045;-70
2021/09/23 07:52:19;;;;;;;34.92;18.48;;;;;;;13.43;55.15;101352.69;4964331;28;20034;-70
2021/09/23 07:54:45;;;;;;;38.72;19.10;;;;;;;12.88;56.55;101355.94;4996574;28;20038;-70
2021/09/23 07:57:13;;;;;;;38.08;17.85;;;;;;;13.26;55.76;101353.44;4983882;28;20681;-69
2021/09/23 07:59:39;;;;;;;37.05;16.85;;;;;;;13.70;54.54;101356.75;4976448;28;20066;-70
2021/09/23 08:02:05;;;;;;;37.67;18.52;;;;;;;13.30;55.38;101373.41;4981501;28;20446;-70
2021/09/23 08:04:31;;;;;;;27.50;16.50;;;;;;;13.49;54.79;101357.66;4995843;28;20236;-70
2021/09/23 08:06:57;;;;;;;33.28;15.85;;;;;;;13.45;55.21;101351.72;4967888;28;20619;-70
2021/09/23 08:09:23;;;;;;;33.40;14.95;;;;;;;13.92;53.62;101348.72;4975640;28;20489;-70
2021/09/23 08:11:49;;;;;;;31.33;14.05;;;;;;;13.63;54.14;101354.44;4964374;28;20126;-70
2021/09/23 08:14:20;;;;;;;30.02;15.75;;;;;;;14.18;52.97;101358.94;4980112;28;20084;-69
2021/09/23 08:16:55;;;;;;;30.42;15.52;;;;;;;13.38;54.54;101362.53;4978599;28;20168;-70
2021/09/23 08:19:40;;;;;;;30.30;13.20;;;;;;;14.41;52.36;101347.31;4991412;28;20101;-70
2021/09/23 08:22:21;;;;;;;28.35;13.02;;;;;;;13.75;53.55;101353.91;4981615;28;20039;-69
2021/09/23 08:24:48;;;;;;;24.15;12.70;;;;;;;13.53;54.68;101344.31;4992031;28;20640;-69
2021/09/23 08:27:14;;;;;;;27.38;12.45;;;;;;;13.79;54.36;101349.38;4975323;28;20022;-69
2021/09/23 08:29:40;;;;;;;21.85;12.25;;;;;;;14.30;52.59;101330.28;4992665;28;20035;-70
2021/09/23 08:32:08;;;;;;;21.25;11.50;;;;;;;14.27;52.74;101335.66;4991856;28;20121;-69
2021/09/23 08:34:34;;;;;;;22.33;10.25;;;;;;;14.19;52.46;101337.84;4977548;28;20537;-69
2021/09/23 08:36:59;;;;;;;16.30;8.55;;;;;;;14.73;51.56;101308.91;4973649;28;20129;-70
2021/09/23 08:39:25;;;;;;;16.33;8.77;;;;;;;15.05;50.08;101311.66;5000916;28;20042;-69
2021/09/23 08:41:51;;;;;;;16.42;7.07;;;;;;;15.03;49.99;101319.63;4980916;28;20078;-69
2021/09/23 08:44:18;;;;;;;16.48;7.28;;;;;;;15.26;49.75;101305.31;4989304;28;20045;-69
2021/09/23 08:46:44;;;;;;;12.40;6.10;;;;;;;15.44;49.60;101302.63;4969181;28;20038;-69
2021/09/23 08:49:10;;;;;;;13.07;6.07;;;;;;;15.84;48.18;101309.22;4988149;28;20033;-70
2021/09/23 08:51:44;;;;;;;10.05;5.13;;;;;;;15.59;48.81;101305.28;4977519;28;20062;-69
2021/09/23 08:54:10;;;;;;;7.53;4.22;;;;;;;15.11;49.42;101309.56;4992240;28;20074;-69
2021/09/23 08:56:35;;;;;;;15.00;4.70;;;;;;;15.15;49.75;101292.69;4978266;28;20046;-69
2021/09/23 08:59:01;;;;;;;10.48;5.20;;;;;;;15.30;49.60;101296.31;4993164;28;20038;-69
2021/09/23 09:01:33;;;;;;;9.13;4.25;;;;;;;14.08;52.04;101298.06;4977282;28;20038;-70
2021/09/23 09:04:06;;;;;;;14.45;4.97;;;;;;;14.55;51.05;101301.03;4967040;28;20047;-70
2021/09/23 09:07:03;;;;;;;8.40;4.22;;;;;;;14.68;50.91;101293.38;4998511;28;20120;-70
2021/09/23 09:09:46;;;;;;;6.95;3.53;;;;;;;15.12;49.61;101300.72;4976812;28;20822;-70
2021/09/23 09:12:14;;;;;;;6.10;2.67;;;;;;;15.11;49.95;101301.66;4988759;28;20035;-70
2021/09/23 09:14:42;;;;;;;12.32;3.33;;;;;;;14.14;51.73;101295.13;4981090;28;20073;-70
2021/09/23 09:17:08;;;;;;;8.70;1.88;;;;;;;14.93;50.04;101286.84;4981038;28;20030;-70
2021/09/23 09:19:45;;;;;;;11.43;1.70;;;;;;;14.72;50.25;101294.03;4994640;28;20041;-70
2021/09/23 09:22:14;;;;;;;10.10;1.75;;;;;;;14.98;49.69;101287.44;4967109;28;20784;-70
2021/09/23 09:24:51;;;;;;;6.25;1.33;;;;;;;14.07;51.50;101275.31;4966601;28;20085;-70
2021/09/23 09:27:37;;;;;;;5.78;2.00;;;;;;;15.12;49.26;101263.88;4966199;28;20030;-70
2021/09/23 09:30:13;;;;;;;7.45;1.63;;;;;;;14.58;50.27;101265.81;4977478;28;20038;-70
2021/09/23 09:32:44;;;;;;;6.40;1.48;;;;;;;14.69;49.13;101252.97;4977765;28;20034;-70
2021/09/23 09:35:14;;;;;;;4.20;1.10;;;;;;;15.57;47.97;101262.38;4993651;28;23131;-70
2021/09/23 09:37:43;;;;;;;4.47;0.80;;;;;;;16.34;45.91;101268.59;4978273;28;20440;-69
2021/09/23 09:40:15;;;;;;;4.40;0.70;;;;;;;16.12;46.45;101257.59;4985036;28;20034;-69
2021/09/23 09:42:42;;;;;;;4.28;0.80;;;;;;;15.83;46.96;101248.69;4975447;28;20046;-70
2021/09/23 09:45:13;;;;;;;6.05;0.90;;;;;;;14.65;48.92;101246.16;4960331;28;20027;-70
2021/09/23 09:47:41;;;;;;;6.90;0.70;;;;;;;15.55;46.68;101242.28;4983752;28;20035;-70
2021/09/23 09:50:14;;;;;;;4.90;0.88;;;;;;;14.94;48.66;101230.63;4981309;28;20130;-69
2021/09/23 09:52:47;;;;;;;4.60;0.70;;;;;;;14.31;50.30;101226.78;4984897;28;20069;-70
2021/09/23 09:55:13;;;;;;;8.02;0.82;;;;;;;15.34;47.89;101233.78;4969529;28;20027;-70
2021/09/23 09:57:46;;;;;;;2.97;0.77;;;;;;;14.89;48.69;101216.88;4979832;28;20053;-70
2021/09/23 10:00:14;;;;;;;8.35;1.48;;;;;;;14.53;49.16;101220.50;4979544;28;20782;-70
2021/09/23 10:02:43;;;;;;;4.10;1.30;;;;;;;14.46;49.88;101222.59;4979337;28;20077;-70
2021/09/23 10:05:11;;;;;;;2.38;0.65;;;;;;;14.93;48.57;101208.72;4986542;28;20030;-70
2021/09/23 10:07:39;;;;;;;2.13;0.80;;;;;;;14.95;48.61;101216.56;4982347;28;20891;-70
2021/09/23 10:10:08;;;;;;;6.63;0.60;;;;;;;15.28;47.73;101215.69;4997004;28;20058;-70
2021/09/23 10:12:36;;;;;;;5.43;0.95;;;;;;;14.95;48.65;101198.13;4980306;28;20066;-70
2021/09/23 10:15:02;;;;;;;2.17;0.77;;;;;;;15.25;48.13;101202.69;4982850;28;20030;-70
2021/09/23 10:17:30;;;;;;;4.10;0.88;;;;;;;14.53;49.87;101210.81;4995728;28;20034;-70
2021/09/23 10:20:02;;;;;;;4.82;0.70;;;;;;;14.63;49.25;101202.44;5000070;28;20397;-71
2021/09/23 10:22:29;;;;;;;6.05;0.73;;;;;;;14.99;48.65;101207.53;4997310;28;20043;-70
2021/09/23 10:24:57;;;;;;;4.13;0.55;;;;;;;14.84;49.33;101203.13;4975935;28;20088;-71
2021/09/23 10:30:10;;;;;;;7.78;1.05;;;;;;;14.54;49.82;101206.41;4982832;28;20045;-71
2021/09/23 10:32:37;;;;;;;4.60;0.90;;;;;;;14.65;49.81;101204.06;4973378;28;20046;-70
2021/09/23 10:35:04;;;;;;;3.67;1.10;;;;;;;14.21;50.93;101198.41;4977504;28;20034;-70
2021/09/23 10:37:31;;;;;;;2.05;0.75;;;;;;;14.19;51.36;101195.00;4977029;28;20054;-70
2021/09/23 10:40:00;;;;;;;4.78;0.90;;;;;;;14.15;51.61;101189.91;4999486;28;20038;-70
2021/09/23 10:42:25;;;;;;;4.43;0.88;;;;;;;14.65;50.56;101198.81;4981946;28;20097;-72
2021/09/23 10:44:54;;;;;;;2.85;0.70;;;;;;;14.30;51.29;101190.06;4979427;28;20151;-72
2021/09/23 10:47:29;;;;;;;6.82;0.65;;;;;;;14.69;50.92;101210.88;4975894;28;20660;-70
2021/09/23 10:49:55;;;;;;;8.05;1.10;;;;;;;14.50;51.50;101208.34;4977752;28;20054;-71
2021/09/23 10:52:22;;;;;;;6.25;0.60;;;;;;;14.39;52.36;101210.66;4994402;28;20129;-70
2021/09/23 10:54:52;;;;;;;8.93;1.13;;;;;;;14.65;52.37;101206.69;4976549;28;20563;-70
2021/09/23 10:57:20;;;;;;;7.38;0.95;;;;;;;14.89;51.90;101208.97;4965124;28;20058;-70
2021/09/23 10:59:50;;;;;;;7.00;0.98;;;;;;;14.32;53.78;101206.59;4974184;28;20053;-70
2021/09/23 11:02:30;;;;;;;8.75;1.92;;;;;;;14.45;54.51;101214.75;4993175;28;20034;-71
2021/09/23 11:04:58;;;;;;;5.22;1.35;;;;;;;14.38;55.02;101215.97;4967943;28;20034;-71
2021/09/23 11:07:25;;;;;;;3.10;1.33;;;;;;;13.65;57.20;101211.66;4980684;28;20142;-70
2021/09/23 11:10:26;;;;;;;7.25;0.73;;;;;;;14.00;56.94;101210.84;4982491;28;20627;-71
2021/09/23 11:12:55;;;;;;;2.58;1.08;;;;;;;13.64;58.42;101227.47;4970776;28;20046;-71
2021/09/23 11:15:26;;;;;;;6.65;1.08;;;;;;;13.90;57.87;101211.31;4982152;28;20046;-71
2021/09/23 11:17:58;;;;;;;10.20;1.60;;;;;;;13.82;58.33;101202.94;4986203;28;20114;-71